Huvudsida
METAR-TAF:

METAR-TAF

Flygplatser :

Vadsø flygplats

Vadsø, Norge

latitud: 70-04N, longitud: 029-51E, höjd: 3 m

Aktuellt väderrapport

Denna rapport gjordes för 1 timme och 7 minuter sedan, klockan 17:50 UTC
Vind 11 kt från väst
Temperatur 1°C
Fuktighet 80%
Tryck 988 hPa
Sikt 10 km eller mer
Få moln på en höjd av 1000 ft
Spridda moln på en höjd av 4000 ft

METAR: ENVD 231750Z 28011KT 9999 FEW010 SCT040 01/M02 Q0988

Tid: 20:57 (18:57 UTC)

Väderprognos

Denna rapport gjordes för 1 timme och 57 minuter sedan, klockan 17:00 UTC
Prognos gäller från 23 kl. 18 UTC till 23 kl. 23 UTC
Vind 8 kt från väst
Sikt 10 km eller mer
Få moln på en höjd av 1200 ft
Spridda moln på en höjd av 3000 ft

TAF: ENVD 231700Z 2318/2323 27008KT 9999 FEW012 SCT030

Aktuella väderrapporter och prognoser från 4000 flygplatser (METAR- och TAF-rapporter).

De tillgängliga stationerna syns som gula och röda prickar på kartan.

För musen över prickarna för att se namnen på stationerna.

Klicka sedan för att få väderrapporter och prognoser.

För att ändra kartan: Klicka på de gröna knapparna med ett svart kors på för att zooma in; den gröna knappen med ett streck på för att zooma ut; eller på de gröna pilarna för angränsande kartor.


METAR-TAF: